^^
Saratoga-Weather Station Historical Data
Daily Summary for March 1, 2020 Units:  English    Metric   Both
Daily Weekly Monthly Yearly Custom
  High: Low: Average:
Temperature: 55 °F 46.6 °F 49.6 °F
Dew Point: 49.8 °F 44.1 °F 46.6 °F
Humidity: 94% 78% 89%
Wind Speed: 14.1mph 0mph 2.3mph
Wind Gust: 15mph - -
Wind- - SSW
Pressure: 29.6 in 29.6 in -
Precipitation: 0.31 in    
Historical Graphs
 
 
Tabular Data for March 1, 2020
Time Temperature Dew Point Pressure Wind Wind Speed Wind Gust Humidity Rainfall Rate (Hourly) solar
00:01 49.3 °F 45 °F 29.6 in ESE 2.9 mph 3 mph 85% 0 in 0 W/m2
00:06 48.9 °F 44.6 °F 29.6 in West 2.9 mph 3 mph 85% 0 in 0 W/m2
00:11 48.7 °F 44.8 °F 29.6 in NNE 4 mph 4 mph 86% 0 in 0 W/m2
00:17 48.6 °F 44.6 °F 29.6 in NNW 2.9 mph 8 mph 86% 0 in 0 W/m2
00:22 48.6 °F 44.8 °F 29.6 in East 2 mph 3 mph 87% 0 in 0 W/m2
00:27 48.6 °F 44.8 °F 29.6 in NW 0.9 mph 3 mph 87% 0 in 0 W/m2
00:32 48.6 °F 44.8 °F 29.6 in SE 2 mph 6 mph 87% 0 in 0 W/m2
00:37 48.6 °F 45.1 °F 29.6 in North 2 mph 4 mph 88% 0 in 0 W/m2
00:42 48.4 °F 45 °F 29.6 in East 4 mph 6 mph 88% 0 in 0 W/m2
00:47 48.4 °F 45 °F 29.6 in Calm   3 mph 88% 0 in 0 W/m2
00:52 48.4 °F 45 °F 29.6 in ESE 4 mph 4 mph 88% 0 in 0 W/m2
00:57 48.2 °F 44.8 °F 29.6 in West 0.9 mph 5 mph 88% 0 in 0 W/m2
01:02 48.2 °F 44.8 °F 29.6 in West 0.9 mph 3 mph 88% 0 in 0 W/m2
01:07 48.2 °F 44.8 °F 29.6 in NE 4.9 mph 5 mph 88% 0 in 0 W/m2
01:12 48.2 °F 45.1 °F 29.6 in WNW 2 mph 5 mph 89% 0 in 0 W/m2
01:17 48.2 °F 45.1 °F 29.6 in WNW 0.9 mph 3 mph 89% 0 in 0 W/m2
01:22 48.2 °F 45.1 °F 29.6 in Calm   1 mph 89% 0 in 0 W/m2
01:27 48.2 °F 45.1 °F 29.6 in ENE 2 mph 3 mph 89% 0 in 0 W/m2
01:32 48 °F 45 °F 29.6 in NE 2.9 mph 4 mph 89% 0 in 0 W/m2
01:37 48 °F 45 °F 29.6 in West 2 mph 3 mph 89% 0 in 0 W/m2
01:42 48 °F 45 °F 29.6 in NNE 0.9 mph 4 mph 89% 0 in 0 W/m2
01:47 47.8 °F 44.8 °F 29.6 in NNW 0.9 mph 2 mph 89% 0 in 0 W/m2
01:52 47.8 °F 44.8 °F 29.6 in WNW 4 mph 4 mph 89% 0 in 0 W/m2
01:57 47.8 °F 44.8 °F 29.6 in NW 2 mph 3 mph 89% 0 in 0 W/m2
02:02 47.8 °F 44.8 °F 29.6 in ENE 0.9 mph 2 mph 89% 0 in 0 W/m2
02:07 47.8 °F 44.8 °F 29.6 in NNE 0.9 mph 1 mph 89% 0 in 0 W/m2
02:12 47.8 °F 45 °F 29.6 in NNW 0.9 mph 1 mph 90% 0 in 0 W/m2
02:17 47.8 °F 45 °F 29.6 in South 2 mph 4 mph 90% 0 in 0 W/m2
02:22 47.8 °F 45 °F 29.6 in NE 2.9 mph 3 mph 90% 0 in 0 W/m2
02:27 47.8 °F 45 °F 29.6 in WNW 0.9 mph 3 mph 90% 0 in 0 W/m2
02:32 47.8 °F 45 °F 29.6 in SE 0.9 mph 2 mph 90% 0 in 0 W/m2
02:37 47.8 °F 45 °F 29.6 in SSE 2 mph 5 mph 90% 0 in 0 W/m2
02:42 47.8 °F 45 °F 29.6 in Calm   2 mph 90% 0 in 0 W/m2
02:47 47.7 °F 45 °F 29.6 in NNE 2 mph 2 mph 90% 0 in 0 W/m2
02:52 47.8 °F 45 °F 29.6 in NNE 0.9 mph 5 mph 90% 0 in 0 W/m2
02:57 47.8 °F 45.3 °F 29.6 in NE 0.9 mph 3 mph 91% 0 in 0 W/m2
03:02 48 °F 45.5 °F 29.6 in NE 2 mph 5 mph 91% 0.01 in 0 W/m2
03:07 48 °F 45.5 °F 29.6 in ENE 2.9 mph 3 mph 91% 0.01 in 0 W/m2
03:12 48.4 °F 45.9 °F 29.6 in NE 2 mph 5 mph 91% 0.01 in 0 W/m2
03:17 48.4 °F 45.9 °F 29.6 in NNW 2 mph 4 mph 91% 0.01 in 0 W/m2
03:22 48.6 °F 46 °F 29.6 in Calm   5 mph 91% 0.01 in 0 W/m2
03:27 48.6 °F 46 °F 29.6 in WNW 2 mph 2 mph 91% 0.01 in 0 W/m2
03:32 48.7 °F 46.2 °F 29.6 in NW 2 mph 7 mph 91% 0.02 in 0 W/m2
03:37 48.7 °F 46.2 °F 29.6 in NNW 2 mph 5 mph 91% 0.02 in 0 W/m2
03:42 48.7 °F 46.2 °F 29.6 in North 2 mph 8 mph 91% 0.02 in 0 W/m2
03:47 48.7 °F 46.2 °F 29.6 in SSW 2 mph 2 mph 91% 0.03 in 0 W/m2
03:52 48.7 °F 46.2 °F 29.6 in Calm   2 mph 91% 0.05 in 0 W/m2
03:57 48.7 °F 46.6 °F 29.6 in NNW 2 mph 3 mph 92% 0.06 in 0 W/m2
04:02 48.7 °F 46.6 °F 29.6 in NNW 2.9 mph 5 mph 92% 0.05 in 0 W/m2
04:07 48.7 °F 46.6 °F 29.6 in NNE 2 mph 3 mph 92% 0.05 in 0 W/m2
04:12 48.7 °F 46.6 °F 29.6 in WNW 0.9 mph 7 mph 92% 0.05 in 0 W/m2
04:17 48.7 °F 46.6 °F 29.6 in Calm   3 mph 92% 0.05 in 0 W/m2
04:22 48.7 °F 46.2 °F 29.6 in NE 2.9 mph 8 mph 91% 0.05 in 0 W/m2
04:27 48.7 °F 46.2 °F 29.6 in North 2 mph 4 mph 91% 0.05 in 0 W/m2
04:32 48.7 °F 46.2 °F 29.6 in WNW 0.9 mph 5 mph 91% 0.04 in 0 W/m2
04:37 48.7 °F 46.2 °F 29.6 in NNW 2 mph 3 mph 91% 0.04 in 0 W/m2
04:43 48.7 °F 46.2 °F 29.6 in Calm   3 mph 91% 0.03 in 0 W/m2
04:48 48.7 °F 46.2 °F 29.6 in WNW 2.9 mph 9 mph 91% 0.02 in 0 W/m2
04:53 48.7 °F 46.2 °F 29.6 in NW 2 mph 5 mph 91% 0.01 in 0 W/m2
04:58 48.7 °F 46.2 °F 29.6 in NNE 2.9 mph 11 mph 91% 0 in 0 W/m2
05:03 48.9 °F 46.4 °F 29.6 in SW 0.9 mph 5 mph 91% 0 in 0 W/m2
05:08 48.7 °F 46.2 °F 29.6 in NNE 2 mph 11 mph 91% 0 in 0 W/m2
05:13 48.7 °F 46.2 °F 29.6 in Calm   2 mph 91% 0 in 0 W/m2
05:18 48.7 °F 46.2 °F 29.6 in WSW 2 mph 2 mph 91% 0 in 0 W/m2
05:23 48.7 °F 46.2 °F 29.6 in NNE 4 mph 4 mph 91% 0.01 in 0 W/m2
05:28 48.7 °F 46.2 °F 29.6 in NE 2 mph 3 mph 91% 0.01 in 0 W/m2
05:33 48.7 °F 46.2 °F 29.6 in NNW 0.9 mph 2 mph 91% 0.01 in 0 W/m2
05:38 48.6 °F 46 °F 29.6 in NNE 2 mph 2 mph 91% 0.01 in 0 W/m2
05:43 48.6 °F 46.4 °F 29.6 in SSW 2.9 mph 3 mph 92% 0.01 in 0 W/m2
05:48 48.6 °F 46.4 °F 29.6 in North 2 mph 4 mph 92% 0.01 in 0 W/m2
05:53 48.6 °F 46.4 °F 29.6 in ENE 0.9 mph 1 mph 92% 0.02 in 0 W/m2
05:58 48.6 °F 46.4 °F 29.6 in Calm   4 mph 92% 0.02 in 0 W/m2
06:03 48.6 °F 46.4 °F 29.6 in NW 0.9 mph 4 mph 92% 0.02 in 0 W/m2
06:08 48.6 °F 46.4 °F 29.6 in North 0.9 mph 2 mph 92% 0.02 in 0 W/m2
06:13 48.4 °F 46.2 °F 29.6 in NNE 2 mph 2 mph 92% 0.02 in 0 W/m2
06:18 48.4 °F 46.2 °F 29.6 in NE 2.9 mph 3 mph 92% 0.02 in 0 W/m2
06:23 48.4 °F 46.2 °F 29.6 in East 0.9 mph 2 mph 92% 0.02 in 0 W/m2
06:28 48.4 °F 46.2 °F 29.6 in NW 0.9 mph 2 mph 92% 0.02 in 0 W/m2
06:33 48.4 °F 46.2 °F 29.6 in WSW 4 mph 13 mph 92% 0.04 in 0 W/m2
06:38 48.4 °F 46.2 °F 29.6 in NW 0.9 mph 2 mph 92% 0.04 in 5 W/m2
06:43 48.4 °F 46.2 °F 29.6 in NW 0.9 mph 7 mph 92% 0.04 in 0 W/m2
06:48 48.4 °F 46.2 °F 29.6 in SE 0.9 mph 3 mph 92% 0.05 in 5 W/m2
06:53 48.2 °F 46 °F 29.6 in WNW 0.9 mph 4 mph 92% 0.05 in 5 W/m2
06:58 48.2 °F 46 °F 29.6 in NW 0.9 mph 2 mph 92% 0.06 in 5 W/m2
07:03 48 °F 45.9 °F 29.6 in Calm   2 mph 92% 0.07 in 7 W/m2
07:08 48 °F 46 °F 29.6 in Calm   1 mph 93% 0.08 in 5 W/m2
07:13 48 °F 46 °F 29.6 in NNE 0.9 mph 1 mph 93% 0.08 in 9 W/m2
07:18 47.8 °F 45.9 °F 29.6 in Calm   2 mph 93% 0.07 in 21 W/m2
07:23 47.8 °F 45.9 °F 29.6 in NNE 0.9 mph 5 mph 93% 0.07 in 12 W/m2
07:28 47.8 °F 45.9 °F 29.6 in North 2 mph 2 mph 93% 0.07 in 28 W/m2
07:33 48 °F 46 °F 29.6 in NNE 0.9 mph 2 mph 93% 0.06 in 19 W/m2
07:38 48 °F 46 °F 29.6 in Calm   1 mph 93% 0.06 in 21 W/m2
07:43 48.2 °F 46.6 °F 29.6 in WNW 2 mph 5 mph 94% 0.06 in 32 W/m2
07:48 48.2 °F 46.2 °F 29.6 in WNW 0.9 mph 6 mph 93% 0.05 in 12 W/m2
07:53 47.5 °F 45.3 °F 29.6 in WNW 8.1 mph 8 mph 92% 0.05 in 7 W/m2
07:58 46.9 °F 44.4 °F 29.6 in West 0.9 mph 7 mph 91% 0.03 in 12 W/m2
08:03 46.6 °F 44.1 °F 29.6 in West 4 mph 8 mph 91% 0.02 in 21 W/m2
08:08 46.6 °F 44.4 °F 29.6 in WNW 2 mph 2 mph 92% 0.02 in 32 W/m2
08:13 46.6 °F 44.4 °F 29.6 in Calm   3 mph 92% 0.02 in 67 W/m2
08:18 46.8 °F 44.8 °F 29.6 in WNW 2 mph 3 mph 93% 0.02 in 118 W/m2
08:24 46.9 °F 45 °F 29.6 in Calm   2 mph 93% 0.02 in 174 W/m2
08:29 47.5 °F 45.5 °F 29.6 in Calm   2 mph 93% 0.01 in 63 W/m2
08:34 47.7 °F 46 °F 29.6 in NW 0.9 mph 1 mph 94% 0.01 in 179 W/m2
08:39 48 °F 46.4 °F 29.6 in NW 0.9 mph 2 mph 94% 0.01 in 132 W/m2
08:44 48.4 °F 46.4 °F 29.6 in Calm   2 mph 93% 0.01 in 84 W/m2
08:49 48.6 °F 46.9 °F 29.6 in East 0.9 mph 4 mph 94% 0.01 in 137 W/m2
08:54 48.7 °F 47.1 °F 29.6 in WNW 2 mph 4 mph 94% 0 in 158 W/m2
08:59 49.3 °F 47.7 °F 29.6 in NW 2 mph 3 mph 94% 0 in 156 W/m2
09:04 49.5 °F 47.5 °F 29.6 in NNE 2.9 mph 4 mph 93% 0 in 146 W/m2
09:09 49.6 °F 47.7 °F 29.6 in Calm   3 mph 93% 0 in 142 W/m2
09:14 49.8 °F 47.8 °F 29.6 in NNE 0.9 mph 8 mph 93% 0 in 90 W/m2
09:19 50 °F 47.8 °F 29.6 in North 2 mph 4 mph 92% 0.02 in 111 W/m2
09:24 50.2 °F 48.2 °F 29.6 in East 0.9 mph 2 mph 93% 0.02 in 130 W/m2
09:29 50.2 °F 48 °F 29.6 in NNE 0.9 mph 2 mph 92% 0.02 in 42 W/m2
09:34 49.8 °F 47.7 °F 29.6 in East 0.9 mph 11 mph 92% 0.02 in 47 W/m2
09:39 49.8 °F 47.7 °F 29.6 in West 2 mph 3 mph 92% 0.04 in 93 W/m2
09:44 49.6 °F 47.5 °F 29.6 in SSW 0.9 mph 11 mph 92% 0.05 in 132 W/m2
09:49 49.8 °F 47.7 °F 29.6 in ESE 2.9 mph 3 mph 92% 0.05 in 225 W/m2
09:54 50 °F 48 °F 29.6 in ESE 4.9 mph 5 mph 93% 0.05 in 95 W/m2
09:59 50 °F 47.8 °F 29.6 in Calm   2 mph 92% 0.05 in 63 W/m2
10:09 49.8 °F 47.7 °F 29.6 in NNW 0.9 mph 3 mph 92% 0.06 in 72 W/m2
10:14 49.6 °F 47.7 °F 29.6 in NW 2.9 mph 5 mph 93% 0.06 in 54 W/m2
10:19 49.6 °F 47.7 °F 29.6 in NNW 0.9 mph 3 mph 93% 0.05 in 33 W/m2
10:24 49.6 °F 47.7 °F 29.6 in NW 4 mph 9 mph 93% 0.06 in 14 W/m2
10:29 49.6 °F 47.7 °F 29.6 in WSW 4.9 mph 12 mph 93% 0.09 in 19 W/m2
10:34 48.6 °F 46 °F 29.6 in WSW 2.9 mph 9 mph 91% 0.11 in 46 W/m2
10:39 48 °F 45.9 °F 29.6 in WSW 2 mph 4 mph 92% 0.09 in 63 W/m2
10:44 48 °F 45.9 °F 29.6 in North 2.9 mph 3 mph 92% 0.09 in 77 W/m2
10:49 48.2 °F 46.2 °F 29.6 in WSW 2.9 mph 4 mph 93% 0.1 in 144 W/m2
10:54 48.4 °F 46.4 °F 29.6 in WNW 2.9 mph 8 mph 93% 0.1 in 227 W/m2
10:59 48.6 °F 46.6 °F 29.6 in WNW 2.9 mph 6 mph 93% 0.1 in 167 W/m2
11:05 48.6 °F 46.6 °F 29.6 in WNW 6.9 mph 8 mph 93% 0.09 in 190 W/m2
11:10 48.7 °F 46.6 °F 29.6 in SW 4 mph 8 mph 92% 0.09 in 251 W/m2
11:15 48.9 °F 46.8 °F 29.6 in West 2.9 mph 5 mph 92% 0.09 in 253 W/m2
11:20 49.3 °F 47.1 °F 29.6 in WSW 2 mph 3 mph 92% 0.09 in 371 W/m2
11:25 49.6 °F 47.5 °F 29.6 in West 2.9 mph 7 mph 92% 0.07 in 334 W/m2
11:30 49.8 °F 47.3 °F 29.6 in WSW 4 mph 7 mph 91% 0.02 in 229 W/m2
11:35 49.6 °F 46.8 °F 29.6 in WNW 4.9 mph 14 mph 90% 0.01 in 241 W/m2
11:40 49.6 °F 46.6 °F 29.6 in SW 2 mph 7 mph 89% 0.01 in 264 W/m2
11:45 49.8 °F 46.8 °F 29.6 in NW 4 mph 14 mph 89% 0.01 in 227 W/m2
11:50 50 °F 46.9 °F 29.6 in SW 4.9 mph 7 mph 89% 0 in 719 W/m2
11:55 50.5 °F 47.5 °F 29.6 in WSW 4.9 mph 9 mph 89% 0 in 719 W/m2
12:00 51.4 °F 48.6 °F 29.6 in NW 2.9 mph 8 mph 90% 0 in 719 W/m2
12:05 52 °F 48.2 °F 29.6 in WNW 4 mph 6 mph 87% 0 in 438 W/m2
12:10 52.3 °F 48.6 °F 29.6 in NNW 4 mph 9 mph 87% 0 in 346 W/m2
12:15 52.5 °F 48.2 °F 29.6 in WNW 2 mph 6 mph 85% 0 in 299 W/m2
12:20 52.9 °F 48.7 °F 29.6 in SW 6 mph 10 mph 86% 0 in 350 W/m2
12:25 53.1 °F 48.4 °F 29.6 in WNW 2.9 mph 6 mph 84% 0 in 397 W/m2
12:30 53.1 °F 48 °F 29.6 in WNW 2 mph 6 mph 83% 0 in 332 W/m2
12:35 53.4 °F 48 °F 29.6 in NNW 0.9 mph 4 mph 82% 0 in 610 W/m2
12:41 53.6 °F 48.2 °F 29.6 in NW 4.9 mph 7 mph 82% 0 in 359 W/m2
12:49 53.8 °F 48.4 °F 29.6 in West 2.9 mph 3 mph 82% 0 in 471 W/m2
12:51 53.8 °F 48.4 °F 29.6 in NW 2 mph 3 mph 82% 0 in 366 W/m2
12:59 54 °F 48.6 °F 29.6 in NNW 4 mph 11 mph 82% 0 in 206 W/m2
13:01 54 °F 48.6 °F 29.6 in NW 2 mph 3 mph 82% 0 in 163 W/m2
13:13 53.8 °F 48.4 °F 29.6 in NNW 6 mph 6 mph 82% 0 in 272 W/m2
13:15 53.4 °F 48 °F 29.6 in ENE 2 mph 4 mph 82% 0 in 229 W/m2
13:20 53.4 °F 48.4 °F 29.6 in NNW 2 mph 4 mph 83% 0 in 306 W/m2
13:27 53.6 °F 48.6 °F 29.6 in NW 2 mph 5 mph 83% 0 in 362 W/m2
13:30 53.4 °F 47.7 °F 29.6 in NNE 2 mph 3 mph 81% 0 in 329 W/m2
13:35 53.4 °F 48.4 °F 29.6 in Calm   2 mph 83% 0 in 362 W/m2
13:40 53.8 °F 48.4 °F 29.6 in NW 6 mph 10 mph 82% 0 in 485 W/m2
13:45 53.8 °F 48.4 °F 29.6 in NE 0.9 mph 4 mph 82% 0 in 434 W/m2
13:50 54 °F 48.2 °F 29.6 in SW 4.9 mph 6 mph 81% 0 in 506 W/m2
13:55 54.1 °F 48.7 °F 29.6 in NW 8.1 mph 15 mph 82% 0 in 417 W/m2
14:00 54.3 °F 48.6 °F 29.6 in SE 4 mph 6 mph 81% 0 in 408 W/m2
14:05 54.3 °F 48.6 °F 29.6 in NW 4.9 mph 12 mph 81% 0 in 677 W/m2
14:10 54.7 °F 48.9 °F 29.6 in WNW 6 mph 13 mph 81% 0 in 603 W/m2
14:16 55 °F 48.6 °F 29.6 in West 2.9 mph 5 mph 79% 0 in 536 W/m2
14:21 55 °F 48.4 °F 29.6 in NNW 0.9 mph 15 mph 78% 0 in 501 W/m2
14:26 55 °F 48.9 °F 29.6 in WNW 14.1 mph 15 mph 80% 0 in 200 W/m2
14:37 54 °F 48.2 °F 29.6 in WNW 0.9 mph 4 mph 81% 0 in 278 W/m2
14:42 54 °F 48.6 °F 29.6 in SSE 0.9 mph 10 mph 82% 0 in 703 W/m2
14:47 54.1 °F 49.5 °F 29.6 in WNW 6.9 mph 7 mph 84% 0 in 828 W/m2
14:52 54.3 °F 49.6 °F 29.6 in NW 2.9 mph 5 mph 84% 0 in 527 W/m2
14:57 54.3 °F 49.3 °F 29.6 in WNW 6.9 mph 7 mph 83% 0 in 279 W/m2
15:02 54 °F 48.9 °F 29.6 in SW 4.9 mph 10 mph 83% 0 in 334 W/m2
15:07 54.3 °F 49.8 °F 29.6 in WNW 4 mph 9 mph 85% 0 in 870 W/m2
15:12 54.7 °F 48.9 °F 29.6 in WNW 10.1 mph 10 mph 81% 0 in 777 W/m2
Juneau County Weather
Compliments of Weather Underground - 2 mb